Terminal Aerodrome Forecast
Issued by NWS

Home | Current Version | Previous Version | Text Only | Print | Product List | Glossary On
Versions: 1 2 3 4 5 6 7 8 9 10 11 12 13
000
FTUS43 KEAX 232320
TAFSTJ
TAF
KSTJ 232320Z 2400/2424 17006KT P6SM BKN150
     FM241200 26009KT P6SM SCT150
     FM242000 33006KT P6SM VCTS SCT050CB=

USA.gov is the U.S. government's official web portal to all federal, state and local government web resources and services.